world map with LERI marked

LERI - Airport

This information may not be accurate or current and is not valid for navigation or flight planning. No warranty of fitness for any purpose is made or implied.

flag of Murciaflag of Spain

Donate via PayPal

Additional information is available on the NEW Great Circle Mapper

Location
City:  Murcia, Murcia, Spain
Name:Alcantarilla
ICAO:LERI

Details
Type:Airport (Aerodrome, Airfield)
Use:Military
Latitude:37°57'04"N (37.951111)
Longitude:1°13'49"W (-1.230318)
Datum:WGS 1984
Elevation:250 ft (76 m)
Runways:1
Longest:3077 × 148 ft (938 × 45 m)

Time
Timezone:UTC+1 (DST+4)
Local Time:

Weather
METAR:LERI  041400Z VRB02KT CAVOK 16/M06 Q1026 NOSIG
TAF:LERI  (expired)

Related Locations
Nearby:
Farthest:NZJP: 12423 mi / 19992 km
Te Puia Springs [Hospital Heliport], GIS, NZ

Find:

   beyond  
but within

Other Information
Maps:
Sources:

  


 


Great Circle Mapper   Great Circle Mapper
Great Circle Mapper FAQ   Great Circle Mapper FAQ
  Karl's Home Page
KLSē   KLSē Home
   GC on Facebook
Airlines of the World   Airlines of the World
Donate via PayPal


Copyright © 2004-2019, Karl L. Swartz. All rights reserved.
All trademarks mentioned herein belong to their respective owners.

Please see credits for attribution and copyright information.

Karl Swartz <karl@kls2.com>
  Powered by FreeBSD
Valid HTML 4.01!
Labeled with ICRA
hCard Microformat
Geo Microformat